logo
Search for airport 
image banner adimage banner adimage banner ad
image banner ad

LSEZ - Zermatt

Located in Zermatt, Switzerland

ICAO - LSEZ, IATA -

Data provided by Airmate  

General information

Coordinates: N46°1'46" E7°45'12"
Elevation is 5314 feet MSL.
Magnetic variation is 1.070° East
View others Airports in Valais

Operational data

Special qualification required
Current time UTC:
Current local time:
Weather at : LSGS - Sion ( 39 km )
METAR: LSGS 202150Z AUTO VRB02KT CAVOK 05/00 Q1021
TAF: TAF LSGS 201425Z 2015/2024 VRB02KT 9999 SCT070
View NOTAMs / SUP AIP / TFR affecting this airport [VIEW]
Communications frequencies: [VIEW]

Runways:

Airport contact information

Address: Zermatt Switzerland

Satellite view of LSEZ